createdAt,value
2023-01-29T00:02:28.110Z,-2.80
2023-01-29T00:04:59.010Z,-2.80
2023-01-29T00:07:28.417Z,-2.90
2023-01-29T00:09:56.426Z,-2.90
2023-01-29T00:12:24.612Z,-2.90
2023-01-29T00:14:52.483Z,-2.90
2023-01-29T00:17:20.522Z,-2.90
2023-01-29T00:19:48.518Z,-2.90
2023-01-29T00:22:16.476Z,-2.90
2023-01-29T00:24:45.843Z,-2.90
2023-01-29T00:27:13.835Z,-2.90
2023-01-29T00:29:41.887Z,-2.90
2023-01-29T00:32:09.963Z,-2.90
2023-01-29T00:34:38.424Z,-2.90
2023-01-29T00:37:08.853Z,-2.90
2023-01-29T00:39:47.836Z,-3.00
2023-01-29T00:42:35.173Z,-3.00
2023-01-29T00:45:03.238Z,-3.00
2023-01-29T00:47:37.122Z,-3.00
2023-01-29T00:50:07.443Z,-3.00
2023-01-29T00:52:36.449Z,-3.10
2023-01-29T00:55:06.918Z,-3.10
2023-01-29T00:57:37.207Z,-3.10
2023-01-29T01:00:06.919Z,-3.10
2023-01-29T01:02:52.478Z,-3.10
2023-01-29T01:05:20.787Z,-3.10
2023-01-29T01:07:50.938Z,-3.00
2023-01-29T01:10:24.280Z,-3.10
2023-01-29T01:12:56.483Z,-3.10
2023-01-29T01:15:25.771Z,-3.10
2023-01-29T01:17:54.818Z,-3.00
2023-01-29T01:20:23.674Z,-3.10
2023-01-29T01:22:54.769Z,-3.20
2023-01-29T01:25:23.519Z,-3.20
2023-01-29T01:30:28.224Z,-3.20
2023-01-29T01:32:57.117Z,-3.10
2023-01-29T01:35:25.052Z,-3.20
2023-01-29T01:37:53.019Z,-3.10
2023-01-29T01:40:22.164Z,-3.20
2023-01-29T01:42:50.579Z,-3.10
2023-01-29T01:45:24.328Z,-3.20
2023-01-29T01:47:58.116Z,-3.20
2023-01-29T01:50:29.823Z,-3.20
2023-01-29T01:53:03.560Z,-3.30
2023-01-29T01:55:34.331Z,-3.30
2023-01-29T01:58:07.886Z,-3.30
2023-01-29T02:00:37.971Z,-3.30
2023-01-29T02:03:24.330Z,-3.30
2023-01-29T02:06:12.296Z,-3.30
2023-01-29T02:09:06.283Z,-3.20
2023-01-29T02:11:37.479Z,-3.30
2023-01-29T02:14:05.474Z,-3.30
2023-01-29T02:16:36.615Z,-3.30
2023-01-29T02:19:08.208Z,-3.30
2023-01-29T02:21:58.941Z,-3.30
2023-01-29T02:24:48.742Z,-3.30
2023-01-29T02:27:21.829Z,-3.30
2023-01-29T02:29:57.830Z,-3.30
2023-01-29T02:32:35.591Z,-3.30
2023-01-29T02:35:27.983Z,-3.30
2023-01-29T02:38:02.749Z,-3.30
2023-01-29T02:40:33.860Z,-3.40
2023-01-29T02:43:09.777Z,-3.40
2023-01-29T02:45:47.834Z,-3.40
2023-01-29T02:48:20.647Z,-3.40
2023-01-29T02:51:00.479Z,-3.40
2023-01-29T02:53:35.035Z,-3.40
2023-01-29T02:56:08.281Z,-3.40
2023-01-29T02:58:43.216Z,-3.40
2023-01-29T03:01:17.033Z,-3.40
2023-01-29T03:03:49.847Z,-3.50
2023-01-29T03:06:23.510Z,-3.50
2023-01-29T03:08:55.465Z,-3.50
2023-01-29T03:11:23.604Z,-3.50
2023-01-29T03:13:59.799Z,-3.60
2023-01-29T03:16:34.997Z,-3.60
2023-01-29T03:19:06.853Z,-3.60
2023-01-29T03:21:59.262Z,-3.60
2023-01-29T03:24:55.925Z,-3.60
2023-01-29T03:27:46.559Z,-3.60
2023-01-29T03:30:37.307Z,-3.60
2023-01-29T03:33:32.376Z,-3.60
2023-01-29T03:36:07.602Z,-3.60
2023-01-29T03:38:36.198Z,-3.60
2023-01-29T03:41:09.597Z,-3.60
2023-01-29T03:43:45.675Z,-3.60
2023-01-29T03:46:23.369Z,-3.60
2023-01-29T03:48:59.223Z,-3.60
2023-01-29T03:51:34.452Z,-3.60
2023-01-29T03:54:10.393Z,-3.60
2023-01-29T03:56:52.165Z,-3.60
2023-01-29T03:59:31.373Z,-3.60
2023-01-29T04:02:27.938Z,-3.60
2023-01-29T04:05:06.955Z,-3.70
2023-01-29T04:07:42.836Z,-3.70
2023-01-29T04:10:18.925Z,-3.70
2023-01-29T04:12:51.237Z,-3.70
2023-01-29T04:15:22.041Z,-3.70
2023-01-29T04:17:53.190Z,-3.70
2023-01-29T04:20:36.894Z,-3.70
2023-01-29T04:23:08.408Z,-3.70
2023-01-29T04:25:45.754Z,-3.70
2023-01-29T04:28:54.835Z,-3.70
2023-01-29T04:31:27.637Z,-3.70
2023-01-29T04:34:06.437Z,-3.70
2023-01-29T04:36:47.933Z,-3.70
2023-01-29T04:39:21.589Z,-3.80
2023-01-29T04:41:54.936Z,-3.80
2023-01-29T04:44:33.697Z,-3.80
2023-01-29T04:47:13.366Z,-3.80
2023-01-29T04:49:47.812Z,-3.90
2023-01-29T04:52:24.691Z,-3.90
2023-01-29T04:55:01.321Z,-4.00
2023-01-29T04:57:37.013Z,-4.00
2023-01-29T05:00:12.498Z,-4.10
2023-01-29T05:02:43.072Z,-4.10
2023-01-29T05:05:14.132Z,-4.10
2023-01-29T05:07:44.385Z,-4.10
2023-01-29T05:10:14.505Z,-4.20
2023-01-29T05:12:47.638Z,-4.20
2023-01-29T05:15:20.073Z,-4.20
2023-01-29T05:17:48.064Z,-4.30
2023-01-29T05:20:16.435Z,-4.40
2023-01-29T05:22:48.100Z,-4.40
2023-01-29T05:25:22.896Z,-4.50
2023-01-29T05:28:07.216Z,-4.50
2023-01-29T05:30:37.942Z,-4.60
2023-01-29T05:33:12.538Z,-4.70
2023-01-29T05:35:40.473Z,-4.70
2023-01-29T05:38:09.797Z,-4.70
2023-01-29T05:40:38.351Z,-4.70
2023-01-29T05:43:07.119Z,-4.80
2023-01-29T05:45:35.149Z,-4.80
2023-01-29T05:48:03.139Z,-4.80
2023-01-29T05:50:31.102Z,-4.90
2023-01-29T05:52:59.614Z,-4.90
2023-01-29T05:55:30.368Z,-4.90
2023-01-29T05:57:58.309Z,-4.90
2023-01-29T06:00:26.633Z,-4.90
2023-01-29T06:02:54.615Z,-5.00
2023-01-29T06:05:22.585Z,-5.00
2023-01-29T06:07:50.724Z,-5.00
2023-01-29T06:10:19.715Z,-5.10
2023-01-29T06:12:49.030Z,-5.10
2023-01-29T06:15:17.206Z,-5.10
2023-01-29T06:17:45.151Z,-5.10
2023-01-29T06:20:14.026Z,-5.20
2023-01-29T06:22:42.105Z,-5.20
2023-01-29T06:25:10.792Z,-5.20
2023-01-29T06:27:38.809Z,-5.20
2023-01-29T06:30:09.431Z,-5.20
2023-01-29T06:32:37.430Z,-5.20
2023-01-29T06:35:06.076Z,-5.10
2023-01-29T06:37:34.044Z,-5.20
2023-01-29T06:40:02.007Z,-5.10
2023-01-29T06:42:29.988Z,-5.10
2023-01-29T06:44:58.297Z,-5.10
2023-01-29T06:47:28.881Z,-5.20
2023-01-29T06:49:57.044Z,-5.20
2023-01-29T06:52:29.015Z,-5.10
2023-01-29T06:54:59.757Z,-5.20
2023-01-29T06:57:30.045Z,-5.20
2023-01-29T07:00:01.456Z,-5.20
2023-01-29T07:02:31.063Z,-5.20
2023-01-29T07:04:59.014Z,-5.30
2023-01-29T07:07:27.010Z,-5.30
2023-01-29T07:09:56.075Z,-5.30
2023-01-29T07:12:24.049Z,-5.30
2023-01-29T07:14:52.094Z,-5.30
2023-01-29T07:17:20.760Z,-5.30
2023-01-29T07:19:50.322Z,-5.10
2023-01-29T07:22:18.577Z,-4.90
2023-01-29T07:24:48.391Z,-4.80
2023-01-29T07:27:16.629Z,-4.70
2023-01-29T07:29:44.924Z,-4.60
2023-01-29T07:32:13.216Z,-4.40
2023-01-29T07:34:41.465Z,-4.40
2023-01-29T07:37:11.228Z,-4.30
2023-01-29T07:39:39.353Z,-4.20
2023-01-29T07:42:10.006Z,-4.20
2023-01-29T07:44:38.383Z,-4.10
2023-01-29T07:47:06.663Z,-4.10
2023-01-29T07:49:37.881Z,-3.90
2023-01-29T07:52:06.384Z,-3.70
2023-01-29T07:54:35.928Z,-3.60
2023-01-29T07:57:04.171Z,-3.60
2023-01-29T07:59:32.695Z,-3.50
2023-01-29T08:02:00.978Z,-3.40
2023-01-29T08:04:29.143Z,-3.40
2023-01-29T08:06:57.336Z,-3.30
2023-01-29T08:09:25.549Z,-3.20
2023-01-29T08:11:55.183Z,-3.10
2023-01-29T08:14:24.119Z,-2.90
2023-01-29T08:17:08.467Z,-2.80
2023-01-29T08:19:36.654Z,-2.70
2023-01-29T08:22:05.600Z,-2.60
2023-01-29T08:24:47.621Z,-2.60
2023-01-29T08:27:23.463Z,-2.60
2023-01-29T08:29:51.493Z,-2.60
2023-01-29T08:32:19.688Z,-2.50
2023-01-29T08:34:48.728Z,-2.40
2023-01-29T08:37:16.854Z,-2.30
2023-01-29T08:39:44.990Z,-2.20
2023-01-29T08:42:16.175Z,-2.10
2023-01-29T08:44:45.405Z,-2.10
2023-01-29T08:47:13.522Z,-2.10
2023-01-29T08:49:41.588Z,-2.00
2023-01-29T08:52:09.670Z,-2.10
2023-01-29T08:54:37.777Z,-2.10
2023-01-29T08:57:06.078Z,-2.10
2023-01-29T08:59:34.102Z,-2.10
2023-01-29T09:02:06.590Z,-2.10
2023-01-29T09:04:34.728Z,-2.10
2023-01-29T09:07:03.033Z,-2.10
2023-01-29T09:09:31.100Z,-2.00
2023-01-29T09:11:59.243Z,-2.00
2023-01-29T09:14:27.695Z,-2.10
2023-01-29T09:16:55.832Z,-2.10
2023-01-29T09:19:25.176Z,-2.00
2023-01-29T09:21:53.379Z,-2.00
2023-01-29T09:24:22.424Z,-2.00
2023-01-29T09:26:50.455Z,-2.00
2023-01-29T09:29:18.416Z,-1.90
2023-01-29T09:31:46.500Z,-1.90
2023-01-29T09:34:14.681Z,-1.90
2023-01-29T09:36:44.135Z,-1.90
2023-01-29T09:39:12.144Z,-1.90
2023-01-29T09:41:54.716Z,-1.80
2023-01-29T09:44:37.267Z,-1.70
2023-01-29T09:47:10.588Z,-1.50
2023-01-29T09:49:42.511Z,-1.50
2023-01-29T09:52:18.825Z,-1.50
2023-01-29T09:54:55.506Z,-1.40
2023-01-29T09:57:28.191Z,-1.40
2023-01-29T09:59:56.762Z,-1.30
2023-01-29T10:02:44.025Z,-1.20
2023-01-29T10:05:24.211Z,-1.20
2023-01-29T10:08:14.620Z,-1.20
2023-01-29T10:10:50.504Z,-1.10
2023-01-29T10:13:28.358Z,-1.10
2023-01-29T10:16:22.074Z,-1.10
2023-01-29T10:19:03.678Z,-1.10
2023-01-29T10:21:55.067Z,-1.10
2023-01-29T10:24:32.806Z,-1.10
2023-01-29T10:27:01.958Z,-1.20
2023-01-29T10:29:30.875Z,-1.20
2023-01-29T10:32:05.053Z,-1.10
2023-01-29T10:34:37.265Z,-1.00
2023-01-29T10:37:16.623Z,-1.10
2023-01-29T10:39:46.320Z,-1.10
2023-01-29T10:42:22.735Z,-1.10
2023-01-29T10:45:01.497Z,-1.20
2023-01-29T10:48:04.180Z,-1.10
2023-01-29T10:50:49.943Z,-0.90
2023-01-29T10:53:34.528Z,-0.70
2023-01-29T10:56:23.076Z,-0.50
2023-01-29T10:58:54.603Z,-0.40
2023-01-29T11:01:22.689Z,-0.30
2023-01-29T11:03:59.227Z,-0.20
2023-01-29T11:06:31.655Z,-0.10
2023-01-29T11:09:09.195Z,0.00
2023-01-29T11:11:45.306Z,0.10
2023-01-29T11:14:16.428Z,0.10
2023-01-29T11:16:46.822Z,0.30
2023-01-29T11:19:16.941Z,0.40
2023-01-29T11:21:58.082Z,0.40
2023-01-29T11:24:28.725Z,0.40
2023-01-29T11:27:00.514Z,0.30
2023-01-29T11:29:35.276Z,0.30
2023-01-29T11:32:06.673Z,0.20
2023-01-29T11:34:34.794Z,0.30
2023-01-29T11:37:05.216Z,0.30
2023-01-29T11:39:33.872Z,0.40
2023-01-29T11:42:04.866Z,0.40
2023-01-29T11:44:36.479Z,0.40
2023-01-29T11:47:19.998Z,0.50
2023-01-29T11:49:50.702Z,0.50
2023-01-29T11:52:22.891Z,0.50
2023-01-29T11:54:53.843Z,0.60
2023-01-29T11:57:31.231Z,0.70
2023-01-29T12:00:02.796Z,0.80
2023-01-29T12:02:39.645Z,1.00
2023-01-29T12:05:16.826Z,1.20
2023-01-29T12:07:47.151Z,1.40
2023-01-29T12:10:31.299Z,1.70
2023-01-29T12:13:07.930Z,1.90
2023-01-29T12:15:37.272Z,2.00
2023-01-29T12:18:14.278Z,2.10
2023-01-29T12:20:47.531Z,2.30
2023-01-29T12:23:26.622Z,2.40
2023-01-29T12:26:01.751Z,2.40
2023-01-29T12:28:41.966Z,2.50
2023-01-29T12:31:23.955Z,2.40
2023-01-29T12:33:59.081Z,2.40
2023-01-29T12:36:32.555Z,2.30
2023-01-29T12:39:00.550Z,2.30
2023-01-29T12:41:34.693Z,2.30
2023-01-29T12:44:08.707Z,2.30
2023-01-29T12:46:42.530Z,2.40
2023-01-29T12:49:16.555Z,2.50
2023-01-29T12:51:54.299Z,2.50
2023-01-29T12:54:27.426Z,2.50
2023-01-29T12:57:00.516Z,2.50
2023-01-29T12:59:33.861Z,2.60
2023-01-29T13:02:15.949Z,2.80
2023-01-29T13:04:48.780Z,2.70
2023-01-29T13:07:23.681Z,2.80
2023-01-29T13:09:55.671Z,2.70
2023-01-29T13:12:25.331Z,2.60
2023-01-29T13:14:59.363Z,2.70
2023-01-29T13:17:32.189Z,2.70
2023-01-29T13:20:05.498Z,2.70
2023-01-29T13:22:39.457Z,2.70
2023-01-29T13:25:11.322Z,2.70
2023-01-29T13:27:40.563Z,2.70
2023-01-29T13:30:26.544Z,2.70
2023-01-29T13:32:56.124Z,2.70
2023-01-29T13:35:24.959Z,2.60
2023-01-29T13:37:55.901Z,2.50
2023-01-29T13:40:26.888Z,2.40
2023-01-29T13:42:59.879Z,2.20
2023-01-29T13:45:36.326Z,2.20
2023-01-29T13:48:12.970Z,2.20
2023-01-29T13:50:43.936Z,2.20
2023-01-29T13:53:22.941Z,2.10
2023-01-29T13:55:51.968Z,2.10
2023-01-29T13:58:54.272Z,2.20
2023-01-29T14:01:55.736Z,2.20
2023-01-29T14:04:29.671Z,2.20
2023-01-29T14:07:00.925Z,2.40
2023-01-29T14:10:05.972Z,2.40
2023-01-29T14:12:49.024Z,2.30
2023-01-29T14:15:28.716Z,2.30
2023-01-29T14:18:20.694Z,2.20
2023-01-29T14:21:28.440Z,2.20
2023-01-29T14:24:00.747Z,2.10
2023-01-29T14:26:46.080Z,2.00
2023-01-29T14:29:34.784Z,1.90
2023-01-29T14:32:13.527Z,1.80
2023-01-29T14:34:51.464Z,1.70
2023-01-29T14:37:29.027Z,1.60
2023-01-29T14:40:08.433Z,1.50
2023-01-29T14:42:39.665Z,1.40
2023-01-29T14:45:27.192Z,1.30
2023-01-29T14:48:03.996Z,1.10
2023-01-29T14:50:54.491Z,0.80
2023-01-29T14:53:29.384Z,0.60
2023-01-29T14:56:02.052Z,0.50
2023-01-29T14:58:39.425Z,0.30
2023-01-29T15:01:15.807Z,0.20
2023-01-29T15:03:46.522Z,0.10
2023-01-29T15:06:19.348Z,0.10
2023-01-29T15:08:54.411Z,0.10
2023-01-29T15:11:37.248Z,-0.10
2023-01-29T15:14:24.066Z,-0.10
2023-01-29T15:17:05.664Z,-0.20
2023-01-29T15:19:36.965Z,-0.30
2023-01-29T15:22:07.517Z,-0.30
2023-01-29T15:24:37.581Z,-0.40
2023-01-29T15:27:11.743Z,-0.40
2023-01-29T15:29:40.412Z,-0.50
2023-01-29T15:32:08.701Z,-0.60
2023-01-29T15:34:36.756Z,-0.60
2023-01-29T15:37:06.135Z,-0.70
2023-01-29T15:39:44.943Z,-0.70
2023-01-29T15:42:21.706Z,-0.70
2023-01-29T15:44:50.079Z,-0.70
2023-01-29T15:47:18.319Z,-0.80
2023-01-29T15:49:49.052Z,-0.80
2023-01-29T15:52:20.190Z,-0.90
2023-01-29T15:54:49.850Z,-0.90
2023-01-29T15:57:24.656Z,-0.90
2023-01-29T15:59:55.313Z,-1.00
2023-01-29T16:02:33.815Z,-1.00
2023-01-29T16:05:02.911Z,-1.10
2023-01-29T16:07:31.437Z,-1.20
2023-01-29T16:10:01.200Z,-1.30
2023-01-29T16:12:29.738Z,-1.40
2023-01-29T16:14:58.107Z,-1.50
2023-01-29T16:17:35.178Z,-1.60
2023-01-29T16:20:05.791Z,-1.70
2023-01-29T16:22:36.869Z,-1.70
2023-01-29T16:25:08.864Z,-1.80
2023-01-29T16:27:37.005Z,-1.90
2023-01-29T16:30:07.560Z,-2.00
2023-01-29T16:32:36.270Z,-2.00
2023-01-29T16:35:06.094Z,-2.00
2023-01-29T16:37:36.784Z,-2.10
2023-01-29T16:40:15.571Z,-2.10
2023-01-29T16:42:43.687Z,-2.20
2023-01-29T16:45:28.129Z,-2.20
2023-01-29T16:48:03.440Z,-2.30
2023-01-29T16:50:46.269Z,-2.30
2023-01-29T16:53:21.422Z,-2.30
2023-01-29T16:55:52.712Z,-2.30
2023-01-29T16:58:23.052Z,-2.40
2023-01-29T17:00:55.065Z,-2.40
2023-01-29T17:03:26.679Z,-2.50
2023-01-29T17:05:55.504Z,-2.60
2023-01-29T17:08:26.574Z,-2.70
2023-01-29T17:10:56.099Z,-2.80
2023-01-29T17:13:29.522Z,-2.80
2023-01-29T17:16:02.717Z,-2.90
2023-01-29T17:18:31.017Z,-3.00
2023-01-29T17:21:04.162Z,-3.10
2023-01-29T17:23:34.713Z,-3.20
2023-01-29T17:26:06.944Z,-3.20
2023-01-29T17:28:35.159Z,-3.20
2023-01-29T17:31:06.490Z,-3.30
2023-01-29T17:33:40.425Z,-3.40
2023-01-29T17:36:13.489Z,-3.40
2023-01-29T17:38:42.431Z,-3.50
2023-01-29T17:41:19.092Z,-3.50
2023-01-29T17:43:47.313Z,-3.50
2023-01-29T17:46:17.880Z,-3.60
2023-01-29T17:48:49.203Z,-3.70
2023-01-29T17:51:24.777Z,-3.70
2023-01-29T17:53:53.118Z,-3.80
2023-01-29T17:56:28.098Z,-3.90
2023-01-29T17:58:56.629Z,-3.90
2023-01-29T18:01:24.801Z,-3.80
2023-01-29T18:03:53.109Z,-3.80
2023-01-29T18:06:31.439Z,-3.90
2023-01-29T18:09:01.870Z,-3.80
2023-01-29T18:11:31.649Z,-3.80
2023-01-29T18:14:01.423Z,-3.90
2023-01-29T18:16:37.953Z,-3.90
2023-01-29T18:19:14.821Z,-3.90
2023-01-29T18:21:42.934Z,-3.90
2023-01-29T18:24:11.059Z,-3.80
2023-01-29T18:26:40.607Z,-3.90
2023-01-29T18:29:08.732Z,-3.90
2023-01-29T18:31:39.725Z,-3.90
2023-01-29T18:34:08.117Z,-3.90
2023-01-29T18:36:36.139Z,-3.90
2023-01-29T18:39:04.260Z,-3.90
2023-01-29T18:41:32.348Z,-3.90
2023-01-29T18:44:01.705Z,-3.90
2023-01-29T18:46:29.636Z,-4.00
2023-01-29T18:48:59.413Z,-4.00
2023-01-29T18:51:28.650Z,-4.00
2023-01-29T18:53:56.703Z,-4.00
2023-01-29T18:56:24.802Z,-4.00
2023-01-29T18:58:57.422Z,-4.00
2023-01-29T19:01:27.258Z,-4.10
2023-01-29T19:03:56.085Z,-4.00
2023-01-29T19:06:24.130Z,-4.10
2023-01-29T19:08:52.177Z,-4.10
2023-01-29T19:11:20.234Z,-4.10
2023-01-29T19:13:49.765Z,-4.00
2023-01-29T19:16:18.054Z,-4.00
2023-01-29T19:18:48.416Z,-4.00
2023-01-29T19:21:17.605Z,-4.10
2023-01-29T19:23:45.862Z,-4.00
2023-01-29T19:26:15.527Z,-4.00
2023-01-29T19:28:43.626Z,-4.10
2023-01-29T19:31:11.722Z,-4.00
2023-01-29T19:33:40.221Z,-4.10
2023-01-29T19:36:11.826Z,-4.10
2023-01-29T19:38:40.090Z,-4.00
2023-01-29T19:41:08.142Z,-4.10
2023-01-29T19:43:38.103Z,-4.10
2023-01-29T19:46:07.417Z,-4.10
2023-01-29T19:48:35.563Z,-4.10
2023-01-29T19:51:08.311Z,-4.20
2023-01-29T19:53:38.608Z,-4.10
2023-01-29T19:56:08.781Z,-4.10
2023-01-29T19:58:37.549Z,-4.20
2023-01-29T20:01:08.127Z,-4.10
2023-01-29T20:03:38.008Z,-4.10
2023-01-29T20:06:08.723Z,-4.10
2023-01-29T20:08:39.271Z,-4.10
2023-01-29T20:11:07.405Z,-4.10
2023-01-29T20:13:35.635Z,-4.10
2023-01-29T20:16:05.485Z,-4.10
2023-01-29T20:18:33.733Z,-4.10
2023-01-29T20:21:07.957Z,-4.10
2023-01-29T20:23:38.936Z,-4.10
2023-01-29T20:26:09.889Z,-4.00
2023-01-29T20:28:38.177Z,-4.00
2023-01-29T20:31:07.746Z,-4.00
2023-01-29T20:33:39.084Z,-4.00
2023-01-29T20:36:09.992Z,-4.00
2023-01-29T20:38:38.413Z,-3.90
2023-01-29T20:41:10.333Z,-3.90
2023-01-29T20:43:38.365Z,-3.90
2023-01-29T20:46:06.810Z,-3.90
2023-01-29T20:48:34.830Z,-3.90
2023-01-29T20:51:08.056Z,-3.90
2023-01-29T20:53:36.688Z,-3.90
2023-01-29T20:56:05.498Z,-3.90
2023-01-29T20:58:35.082Z,-3.90
2023-01-29T21:01:07.730Z,-3.80
2023-01-29T21:03:35.848Z,-3.90
2023-01-29T21:06:06.588Z,-3.90
2023-01-29T21:08:35.318Z,-3.80
2023-01-29T21:11:03.885Z,-3.90
2023-01-29T21:13:32.263Z,-3.90
2023-01-29T21:16:02.167Z,-3.80
2023-01-29T21:18:30.246Z,-3.80
2023-01-29T21:20:59.308Z,-3.80
2023-01-29T21:23:27.330Z,-3.80
2023-01-29T21:25:55.464Z,-3.80
2023-01-29T21:28:23.431Z,-3.80
2023-01-29T21:30:51.500Z,-3.80
2023-01-29T21:33:21.657Z,-3.70
2023-01-29T21:35:58.484Z,-3.80
2023-01-29T21:38:26.527Z,-3.80
2023-01-29T21:40:59.520Z,-3.80
2023-01-29T21:43:26.598Z,-3.80
2023-01-29T21:45:58.099Z,-3.80
2023-01-29T21:48:27.896Z,-3.80
2023-01-29T21:50:55.893Z,-3.80
2023-01-29T21:53:24.938Z,-3.80
2023-01-29T21:55:59.487Z,-3.80
2023-01-29T21:58:27.602Z,-3.80
2023-01-29T22:00:55.626Z,-3.80
2023-01-29T22:03:23.857Z,-3.70
2023-01-29T22:05:53.299Z,-3.70
2023-01-29T22:08:21.451Z,-3.70
2023-01-29T22:10:50.628Z,-3.70
2023-01-29T22:13:20.021Z,-3.70
2023-01-29T22:15:48.068Z,-3.70
2023-01-29T22:18:16.217Z,-3.70
2023-01-29T22:20:44.154Z,-3.70
2023-01-29T22:23:13.506Z,-3.70
2023-01-29T22:25:42.479Z,-3.70
2023-01-29T22:28:10.415Z,-3.60
2023-01-29T22:30:38.339Z,-3.60
2023-01-29T22:33:06.246Z,-3.60
2023-01-29T22:35:34.169Z,-3.50
2023-01-29T22:38:02.086Z,-3.50
2023-01-29T22:40:31.427Z,-3.50
2023-01-29T22:43:03.576Z,-3.50
2023-01-29T22:45:31.616Z,-3.40
2023-01-29T22:47:59.632Z,-3.40
2023-01-29T22:50:27.892Z,-3.40
2023-01-29T22:52:56.237Z,-3.30
2023-01-29T22:55:24.344Z,-3.30
2023-01-29T22:57:54.495Z,-3.20
2023-01-29T23:00:23.301Z,-3.20
2023-01-29T23:02:51.740Z,-3.20
2023-01-29T23:05:23.007Z,-3.20
2023-01-29T23:07:59.976Z,-3.20
2023-01-29T23:10:37.246Z,-3.10
2023-01-29T23:13:06.922Z,-3.10
2023-01-29T23:15:37.406Z,-3.10
2023-01-29T23:18:06.542Z,-3.10
2023-01-29T23:20:35.429Z,-3.10
2023-01-29T23:23:06.664Z,-3.10
2023-01-29T23:25:55.253Z,-3.10
2023-01-29T23:28:46.037Z,-3.10
2023-01-29T23:31:15.872Z,-3.10
2023-01-29T23:33:44.006Z,-3.10
2023-01-29T23:36:12.231Z,-3.10
2023-01-29T23:38:40.554Z,-3.10
2023-01-29T23:41:08.652Z,-3.10
2023-01-29T23:43:38.174Z,-3.10
2023-01-29T23:46:07.881Z,-3.10
2023-01-29T23:48:36.137Z,-3.10
2023-01-29T23:51:04.169Z,-3.10
2023-01-29T23:53:32.239Z,-3.10
2023-01-29T23:56:02.615Z,-3.10
2023-01-29T23:58:31.265Z,-3.10
